sensor_id;sensor_type;location;lat;lon;timestamp;P1;durP1;ratioP1;P2;durP2;ratioP2
55290;SDS011;41155;39.768;2.712;2023-03-04T00:00:36;91.13;;;74.00;;
55290;SDS011;41155;39.768;2.712;2023-03-04T00:03:07;96.78;;;72.30;;
55290;SDS011;41155;39.768;2.712;2023-03-04T00:05:35;94.30;;;69.88;;
55290;SDS011;41155;39.768;2.712;2023-03-04T00:08:01;91.78;;;78.00;;
55290;SDS011;41155;39.768;2.712;2023-03-04T00:10:26;106.72;;;75.97;;
55290;SDS011;41155;39.768;2.712;2023-03-04T00:12:52;100.95;;;78.10;;
55290;SDS011;41155;39.768;2.712;2023-03-04T00:15:17;125.22;;;90.32;;
55290;SDS011;41155;39.768;2.712;2023-03-04T00:17:43;113.22;;;86.35;;
55290;SDS011;41155;39.768;2.712;2023-03-04T00:20:10;99.22;;;83.82;;
55290;SDS011;41155;39.768;2.712;2023-03-04T00:22:36;91.80;;;70.25;;
55290;SDS011;41155;39.768;2.712;2023-03-04T00:25:02;87.00;;;68.30;;
55290;SDS011;41155;39.768;2.712;2023-03-04T00:27:28;63.28;;;56.58;;
55290;SDS011;41155;39.768;2.712;2023-03-04T00:29:54;65.55;;;53.72;;
55290;SDS011;41155;39.768;2.712;2023-03-04T00:32:20;66.20;;;56.53;;
55290;SDS011;41155;39.768;2.712;2023-03-04T00:34:46;69.43;;;58.78;;
55290;SDS011;41155;39.768;2.712;2023-03-04T00:37:11;70.78;;;55.55;;
55290;SDS011;41155;39.768;2.712;2023-03-04T00:39:37;66.45;;;53.78;;
55290;SDS011;41155;39.768;2.712;2023-03-04T00:42:02;68.30;;;55.38;;
55290;SDS011;41155;39.768;2.712;2023-03-04T00:44:28;73.53;;;58.03;;
55290;SDS011;41155;39.768;2.712;2023-03-04T00:46:53;68.82;;;52.22;;
55290;SDS011;41155;39.768;2.712;2023-03-04T00:49:19;63.72;;;48.42;;
55290;SDS011;41155;39.768;2.712;2023-03-04T00:51:45;55.45;;;44.45;;
55290;SDS011;41155;39.768;2.712;2023-03-04T00:54:10;57.35;;;51.08;;
55290;SDS011;41155;39.768;2.712;2023-03-04T00:56:36;59.83;;;53.45;;
55290;SDS011;41155;39.768;2.712;2023-03-04T00:59:01;59.63;;;52.17;;
55290;SDS011;41155;39.768;2.712;2023-03-04T01:01:26;78.93;;;53.72;;
55290;SDS011;41155;39.768;2.712;2023-03-04T01:03:52;64.38;;;52.05;;
55290;SDS011;41155;39.768;2.712;2023-03-04T01:06:19;67.22;;;55.60;;
55290;SDS011;41155;39.768;2.712;2023-03-04T01:08:44;76.70;;;57.78;;
55290;SDS011;41155;39.768;2.712;2023-03-04T01:11:10;73.35;;;56.65;;
55290;SDS011;41155;39.768;2.712;2023-03-04T01:13:36;67.97;;;55.50;;
55290;SDS011;41155;39.768;2.712;2023-03-04T01:16:01;65.22;;;52.80;;
55290;SDS011;41155;39.768;2.712;2023-03-04T01:18:27;74.47;;;56.47;;
55290;SDS011;41155;39.768;2.712;2023-03-04T01:20:53;59.92;;;50.45;;
55290;SDS011;41155;39.768;2.712;2023-03-04T01:23:19;61.00;;;52.78;;
55290;SDS011;41155;39.768;2.712;2023-03-04T01:25:44;63.80;;;53.70;;
55290;SDS011;41155;39.768;2.712;2023-03-04T01:28:10;59.78;;;53.03;;
55290;SDS011;41155;39.768;2.712;2023-03-04T01:30:35;68.30;;;52.45;;
55290;SDS011;41155;39.768;2.712;2023-03-04T01:33:01;74.47;;;56.65;;
55290;SDS011;41155;39.768;2.712;2023-03-04T01:35:26;66.43;;;51.80;;
55290;SDS011;41155;39.768;2.712;2023-03-04T01:37:52;63.42;;;50.15;;
55290;SDS011;41155;39.768;2.712;2023-03-04T01:40:17;65.65;;;54.97;;
55290;SDS011;41155;39.768;2.712;2023-03-04T01:42:43;67.57;;;56.70;;
55290;SDS011;41155;39.768;2.712;2023-03-04T01:45:11;74.32;;;60.97;;
55290;SDS011;41155;39.768;2.712;2023-03-04T01:47:40;67.47;;;52.50;;
55290;SDS011;41155;39.768;2.712;2023-03-04T01:50:10;62.38;;;53.65;;
55290;SDS011;41155;39.768;2.712;2023-03-04T01:52:44;61.97;;;50.17;;
55290;SDS011;41155;39.768;2.712;2023-03-04T01:55:19;57.10;;;46.60;;
55290;SDS011;41155;39.768;2.712;2023-03-04T01:57:46;54.90;;;43.85;;
55290;SDS011;41155;39.768;2.712;2023-03-04T02:02:44;62.67;;;48.42;;
55290;SDS011;41155;39.768;2.712;2023-03-04T02:05:10;59.13;;;48.17;;
55290;SDS011;41155;39.768;2.712;2023-03-04T02:07:36;86.18;;;60.05;;
55290;SDS011;41155;39.768;2.712;2023-03-04T02:10:03;61.17;;;50.38;;
55290;SDS011;41155;39.768;2.712;2023-03-04T02:12:29;59.70;;;49.30;;
55290;SDS011;41155;39.768;2.712;2023-03-04T02:14:54;61.17;;;44.88;;
55290;SDS011;41155;39.768;2.712;2023-03-04T02:17:26;68.90;;;55.67;;
55290;SDS011;41155;39.768;2.712;2023-03-04T02:22:34;57.92;;;48.30;;
55290;SDS011;41155;39.768;2.712;2023-03-04T02:25:13;58.10;;;48.33;;
55290;SDS011;41155;39.768;2.712;2023-03-04T02:27:42;67.90;;;48.95;;
55290;SDS011;41155;39.768;2.712;2023-03-04T02:30:09;55.63;;;44.92;;
55290;SDS011;41155;39.768;2.712;2023-03-04T02:32:36;65.57;;;56.60;;
55290;SDS011;41155;39.768;2.712;2023-03-04T02:35:02;68.00;;;53.00;;
55290;SDS011;41155;39.768;2.712;2023-03-04T02:37:28;69.13;;;52.88;;
55290;SDS011;41155;39.768;2.712;2023-03-04T02:39:53;164.32;;;113.80;;
55290;SDS011;41155;39.768;2.712;2023-03-04T02:42:19;78.15;;;58.60;;
55290;SDS011;41155;39.768;2.712;2023-03-04T02:44:45;87.78;;;64.47;;
55290;SDS011;41155;39.768;2.712;2023-03-04T02:47:14;83.15;;;58.00;;
55290;SDS011;41155;39.768;2.712;2023-03-04T02:49:42;81.57;;;57.33;;
55290;SDS011;41155;39.768;2.712;2023-03-04T02:54:44;80.55;;;60.03;;
55290;SDS011;41155;39.768;2.712;2023-03-04T02:57:10;77.22;;;60.03;;
55290;SDS011;41155;39.768;2.712;2023-03-04T02:59:38;83.90;;;62.63;;
55290;SDS011;41155;39.768;2.712;2023-03-04T03:02:05;99.97;;;58.38;;
55290;SDS011;41155;39.768;2.712;2023-03-04T03:04:31;91.57;;;66.38;;
55290;SDS011;41155;39.768;2.712;2023-03-04T03:06:57;91.57;;;64.07;;
55290;SDS011;41155;39.768;2.712;2023-03-04T03:09:22;93.70;;;62.50;;
55290;SDS011;41155;39.768;2.712;2023-03-04T03:11:48;81.63;;;61.92;;
55290;SDS011;41155;39.768;2.712;2023-03-04T03:14:14;72.22;;;59.20;;
55290;SDS011;41155;39.768;2.712;2023-03-04T03:16:39;65.63;;;54.63;;
55290;SDS011;41155;39.768;2.712;2023-03-04T03:19:05;85.72;;;53.45;;
55290;SDS011;41155;39.768;2.712;2023-03-04T03:21:30;70.28;;;59.95;;
55290;SDS011;41155;39.768;2.712;2023-03-04T03:23:56;79.57;;;61.28;;
55290;SDS011;41155;39.768;2.712;2023-03-04T03:26:21;143.40;;;89.65;;
55290;SDS011;41155;39.768;2.712;2023-03-04T03:28:47;103.20;;;64.30;;
55290;SDS011;41155;39.768;2.712;2023-03-04T03:31:13;63.75;;;51.63;;
55290;SDS011;41155;39.768;2.712;2023-03-04T03:33:38;59.28;;;50.50;;
55290;SDS011;41155;39.768;2.712;2023-03-04T03:36:04;60.78;;;52.92;;
55290;SDS011;41155;39.768;2.712;2023-03-04T03:38:30;64.13;;;53.80;;
55290;SDS011;41155;39.768;2.712;2023-03-04T03:40:56;65.78;;;49.13;;
55290;SDS011;41155;39.768;2.712;2023-03-04T03:43:21;63.70;;;49.40;;
55290;SDS011;41155;39.768;2.712;2023-03-04T03:45:47;61.00;;;49.88;;
55290;SDS011;41155;39.768;2.712;2023-03-04T03:48:12;68.25;;;49.95;;
55290;SDS011;41155;39.768;2.712;2023-03-04T03:50:38;65.90;;;50.25;;
55290;SDS011;41155;39.768;2.712;2023-03-04T03:53:03;71.93;;;51.83;;
55290;SDS011;41155;39.768;2.712;2023-03-04T03:55:29;54.97;;;48.13;;
55290;SDS011;41155;39.768;2.712;2023-03-04T03:57:55;73.07;;;52.30;;
55290;SDS011;41155;39.768;2.712;2023-03-04T04:00:20;73.57;;;49.15;;
55290;SDS011;41155;39.768;2.712;2023-03-04T04:02:46;59.05;;;48.83;;
55290;SDS011;41155;39.768;2.712;2023-03-04T04:05:11;59.88;;;45.50;;
55290;SDS011;41155;39.768;2.712;2023-03-04T04:07:37;70.43;;;49.28;;
55290;SDS011;41155;39.768;2.712;2023-03-04T04:10:03;73.50;;;52.45;;
55290;SDS011;41155;39.768;2.712;2023-03-04T04:12:30;68.78;;;57.25;;
55290;SDS011;41155;39.768;2.712;2023-03-04T04:14:56;63.17;;;52.13;;
55290;SDS011;41155;39.768;2.712;2023-03-04T04:17:21;68.85;;;59.00;;
55290;SDS011;41155;39.768;2.712;2023-03-04T04:19:47;68.28;;;53.17;;
55290;SDS011;41155;39.768;2.712;2023-03-04T04:22:14;72.65;;;52.20;;
55290;SDS011;41155;39.768;2.712;2023-03-04T04:24:41;64.10;;;52.85;;
55290;SDS011;41155;39.768;2.712;2023-03-04T04:27:07;58.80;;;49.95;;
55290;SDS011;41155;39.768;2.712;2023-03-04T04:29:32;59.97;;;52.13;;
55290;SDS011;41155;39.768;2.712;2023-03-04T04:31:58;67.35;;;51.22;;
55290;SDS011;41155;39.768;2.712;2023-03-04T04:34:24;74.70;;;55.53;;
55290;SDS011;41155;39.768;2.712;2023-03-04T04:36:50;78.88;;;54.70;;
55290;SDS011;41155;39.768;2.712;2023-03-04T04:39:15;75.60;;;56.22;;
55290;SDS011;41155;39.768;2.712;2023-03-04T04:41:41;72.82;;;54.35;;
55290;SDS011;41155;39.768;2.712;2023-03-04T04:44:08;75.43;;;52.65;;
55290;SDS011;41155;39.768;2.712;2023-03-04T04:46:35;57.53;;;46.40;;
55290;SDS011;41155;39.768;2.712;2023-03-04T04:49:00;68.40;;;52.50;;
55290;SDS011;41155;39.768;2.712;2023-03-04T04:51:26;61.65;;;48.03;;
55290;SDS011;41155;39.768;2.712;2023-03-04T04:53:51;72.70;;;53.58;;
55290;SDS011;41155;39.768;2.712;2023-03-04T04:56:19;68.47;;;53.58;;
55290;SDS011;41155;39.768;2.712;2023-03-04T04:58:46;57.55;;;48.15;;
55290;SDS011;41155;39.768;2.712;2023-03-04T05:01:12;61.78;;;51.60;;
55290;SDS011;41155;39.768;2.712;2023-03-04T05:03:38;57.05;;;48.80;;
55290;SDS011;41155;39.768;2.712;2023-03-04T05:06:05;61.17;;;49.97;;
55290;SDS011;41155;39.768;2.712;2023-03-04T05:08:32;66.45;;;51.85;;
55290;SDS011;41155;39.768;2.712;2023-03-04T05:10:58;63.85;;;52.65;;
55290;SDS011;41155;39.768;2.712;2023-03-04T05:13:24;66.93;;;52.85;;
55290;SDS011;41155;39.768;2.712;2023-03-04T05:15:50;65.90;;;46.08;;
55290;SDS011;41155;39.768;2.712;2023-03-04T05:18:17;58.10;;;49.20;;
55290;SDS011;41155;39.768;2.712;2023-03-04T05:20:43;63.90;;;47.85;;
55290;SDS011;41155;39.768;2.712;2023-03-04T05:23:08;60.90;;;45.55;;
55290;SDS011;41155;39.768;2.712;2023-03-04T05:25:34;66.25;;;46.30;;
55290;SDS011;41155;39.768;2.712;2023-03-04T05:27:59;53.35;;;43.13;;
55290;SDS011;41155;39.768;2.712;2023-03-04T05:30:26;55.75;;;45.38;;
55290;SDS011;41155;39.768;2.712;2023-03-04T05:32:52;57.80;;;45.22;;
55290;SDS011;41155;39.768;2.712;2023-03-04T05:35:17;66.85;;;49.85;;
55290;SDS011;41155;39.768;2.712;2023-03-04T05:37:43;57.30;;;48.55;;
55290;SDS011;41155;39.768;2.712;2023-03-04T05:40:08;66.72;;;46.70;;
55290;SDS011;41155;39.768;2.712;2023-03-04T05:42:34;57.22;;;50.97;;
55290;SDS011;41155;39.768;2.712;2023-03-04T05:45:00;59.05;;;47.45;;
55290;SDS011;41155;39.768;2.712;2023-03-04T05:47:25;56.53;;;46.78;;
55290;SDS011;41155;39.768;2.712;2023-03-04T05:49:51;50.65;;;43.58;;
55290;SDS011;41155;39.768;2.712;2023-03-04T05:52:16;57.60;;;46.53;;
55290;SDS011;41155;39.768;2.712;2023-03-04T05:54:42;55.67;;;47.40;;
55290;SDS011;41155;39.768;2.712;2023-03-04T05:57:07;59.47;;;51.63;;
55290;SDS011;41155;39.768;2.712;2023-03-04T05:59:33;61.80;;;48.03;;
55290;SDS011;41155;39.768;2.712;2023-03-04T06:01:58;58.88;;;46.35;;
55290;SDS011;41155;39.768;2.712;2023-03-04T06:04:23;69.18;;;51.28;;
55290;SDS011;41155;39.768;2.712;2023-03-04T06:06:49;61.92;;;47.83;;
55290;SDS011;41155;39.768;2.712;2023-03-04T06:09:14;68.88;;;47.63;;
55290;SDS011;41155;39.768;2.712;2023-03-04T06:11:40;64.53;;;46.80;;
55290;SDS011;41155;39.768;2.712;2023-03-04T06:14:06;69.43;;;57.03;;
55290;SDS011;41155;39.768;2.712;2023-03-04T06:16:31;77.68;;;55.17;;
55290;SDS011;41155;39.768;2.712;2023-03-04T06:18:57;110.60;;;98.85;;
55290;SDS011;41155;39.768;2.712;2023-03-04T06:21:22;78.70;;;66.90;;
55290;SDS011;41155;39.768;2.712;2023-03-04T06:23:48;95.88;;;85.07;;
55290;SDS011;41155;39.768;2.712;2023-03-04T06:26:13;92.25;;;82.25;;
55290;SDS011;41155;39.768;2.712;2023-03-04T06:28:42;86.70;;;68.72;;
55290;SDS011;41155;39.768;2.712;2023-03-04T06:31:08;86.00;;;65.72;;
55290;SDS011;41155;39.768;2.712;2023-03-04T06:33:34;79.30;;;65.88;;
55290;SDS011;41155;39.768;2.712;2023-03-04T06:36:00;69.07;;;54.20;;
55290;SDS011;41155;39.768;2.712;2023-03-04T06:38:26;59.55;;;52.90;;
55290;SDS011;41155;39.768;2.712;2023-03-04T06:40:52;63.13;;;50.92;;
55290;SDS011;41155;39.768;2.712;2023-03-04T06:43:18;52.58;;;43.05;;
55290;SDS011;41155;39.768;2.712;2023-03-04T06:45:43;55.25;;;41.83;;
55290;SDS011;41155;39.768;2.712;2023-03-04T06:48:09;57.35;;;43.72;;
55290;SDS011;41155;39.768;2.712;2023-03-04T06:50:35;60.42;;;44.58;;
55290;SDS011;41155;39.768;2.712;2023-03-04T06:53:00;72.95;;;51.97;;
55290;SDS011;41155;39.768;2.712;2023-03-04T06:55:26;62.85;;;50.08;;
55290;SDS011;41155;39.768;2.712;2023-03-04T06:57:51;65.97;;;49.20;;
55290;SDS011;41155;39.768;2.712;2023-03-04T07:00:17;58.78;;;50.47;;
55290;SDS011;41155;39.768;2.712;2023-03-04T07:02:43;71.40;;;51.30;;
55290;SDS011;41155;39.768;2.712;2023-03-04T07:05:09;56.75;;;48.50;;
55290;SDS011;41155;39.768;2.712;2023-03-04T07:07:35;55.92;;;47.28;;
55290;SDS011;41155;39.768;2.712;2023-03-04T07:10:02;61.95;;;47.95;;
55290;SDS011;41155;39.768;2.712;2023-03-04T07:12:28;73.32;;;49.38;;
55290;SDS011;41155;39.768;2.712;2023-03-04T07:14:53;65.75;;;51.95;;
55290;SDS011;41155;39.768;2.712;2023-03-04T07:17:19;59.75;;;49.42;;
55290;SDS011;41155;39.768;2.712;2023-03-04T07:19:44;67.75;;;52.63;;
55290;SDS011;41155;39.768;2.712;2023-03-04T07:22:10;55.85;;;47.38;;
55290;SDS011;41155;39.768;2.712;2023-03-04T07:24:35;68.60;;;54.40;;
55290;SDS011;41155;39.768;2.712;2023-03-04T07:27:01;91.10;;;57.10;;
55290;SDS011;41155;39.768;2.712;2023-03-04T07:29:26;73.00;;;46.75;;
55290;SDS011;41155;39.768;2.712;2023-03-04T07:31:52;66.72;;;45.88;;
55290;SDS011;41155;39.768;2.712;2023-03-04T07:34:17;70.13;;;55.47;;
55290;SDS011;41155;39.768;2.712;2023-03-04T07:36:43;76.50;;;54.08;;
55290;SDS011;41155;39.768;2.712;2023-03-04T07:39:09;71.32;;;47.97;;
55290;SDS011;41155;39.768;2.712;2023-03-04T07:41:37;59.70;;;46.28;;
55290;SDS011;41155;39.768;2.712;2023-03-04T07:44:03;60.28;;;50.05;;
55290;SDS011;41155;39.768;2.712;2023-03-04T07:46:31;240.48;;;88.22;;
55290;SDS011;41155;39.768;2.712;2023-03-04T07:48:56;67.93;;;53.00;;
55290;SDS011;41155;39.768;2.712;2023-03-04T07:51:23;316.63;;;204.60;;
55290;SDS011;41155;39.768;2.712;2023-03-04T07:53:50;199.68;;;112.63;;
55290;SDS011;41155;39.768;2.712;2023-03-04T07:56:18;132.60;;;82.13;;
55290;SDS011;41155;39.768;2.712;2023-03-04T07:58:46;99.80;;;64.10;;
55290;SDS011;41155;39.768;2.712;2023-03-04T08:01:16;112.63;;;64.78;;
55290;SDS011;41155;39.768;2.712;2023-03-04T08:06:14;95.80;;;64.10;;
55290;SDS011;41155;39.768;2.712;2023-03-04T08:08:41;76.72;;;52.42;;
55290;SDS011;41155;39.768;2.712;2023-03-04T08:11:08;73.97;;;50.92;;
55290;SDS011;41155;39.768;2.712;2023-03-04T08:13:36;88.63;;;61.03;;
55290;SDS011;41155;39.768;2.712;2023-03-04T08:16:02;84.40;;;60.00;;
55290;SDS011;41155;39.768;2.712;2023-03-04T08:18:28;66.95;;;56.72;;
55290;SDS011;41155;39.768;2.712;2023-03-04T08:20:53;72.80;;;55.10;;
55290;SDS011;41155;39.768;2.712;2023-03-04T08:23:19;85.10;;;53.83;;
55290;SDS011;41155;39.768;2.712;2023-03-04T08:25:45;70.57;;;58.15;;
55290;SDS011;41155;39.768;2.712;2023-03-04T08:28:11;92.38;;;54.60;;
55290;SDS011;41155;39.768;2.712;2023-03-04T08:30:40;66.85;;;51.25;;
55290;SDS011;41155;39.768;2.712;2023-03-04T08:33:05;66.50;;;45.85;;
55290;SDS011;41155;39.768;2.712;2023-03-04T08:35:31;58.10;;;44.33;;
55290;SDS011;41155;39.768;2.712;2023-03-04T08:37:57;68.38;;;45.50;;
55290;SDS011;41155;39.768;2.712;2023-03-04T08:40:23;64.43;;;43.25;;
55290;SDS011;41155;39.768;2.712;2023-03-04T08:42:50;66.15;;;43.95;;
55290;SDS011;41155;39.768;2.712;2023-03-04T08:45:16;52.60;;;36.90;;
55290;SDS011;41155;39.768;2.712;2023-03-04T08:47:41;36.10;;;30.02;;
55290;SDS011;41155;39.768;2.712;2023-03-04T08:50:07;53.72;;;34.22;;
55290;SDS011;41155;39.768;2.712;2023-03-04T08:52:33;42.72;;;29.83;;
55290;SDS011;41155;39.768;2.712;2023-03-04T08:54:59;31.83;;;25.77;;
55290;SDS011;41155;39.768;2.712;2023-03-04T08:57:25;44.20;;;23.85;;
55290;SDS011;41155;39.768;2.712;2023-03-04T08:59:51;49.25;;;23.40;;
55290;SDS011;41155;39.768;2.712;2023-03-04T09:02:16;39.10;;;22.63;;
55290;SDS011;41155;39.768;2.712;2023-03-04T09:04:42;42.25;;;25.00;;
55290;SDS011;41155;39.768;2.712;2023-03-04T09:07:07;34.53;;;23.60;;
55290;SDS011;41155;39.768;2.712;2023-03-04T09:09:33;33.03;;;22.20;;
55290;SDS011;41155;39.768;2.712;2023-03-04T09:11:59;35.25;;;23.55;;
55290;SDS011;41155;39.768;2.712;2023-03-04T09:14:25;31.42;;;23.42;;
55290;SDS011;41155;39.768;2.712;2023-03-04T09:16:50;31.48;;;23.80;;
55290;SDS011;41155;39.768;2.712;2023-03-04T09:19:16;37.40;;;28.65;;
55290;SDS011;41155;39.768;2.712;2023-03-04T09:21:41;36.50;;;28.85;;
55290;SDS011;41155;39.768;2.712;2023-03-04T09:24:07;41.67;;;35.40;;
55290;SDS011;41155;39.768;2.712;2023-03-04T09:26:33;42.50;;;32.30;;
55290;SDS011;41155;39.768;2.712;2023-03-04T09:28:59;51.05;;;32.63;;
55290;SDS011;41155;39.768;2.712;2023-03-04T09:31:25;37.08;;;27.45;;
55290;SDS011;41155;39.768;2.712;2023-03-04T09:33:52;45.63;;;32.63;;
55290;SDS011;41155;39.768;2.712;2023-03-04T09:36:19;37.63;;;32.97;;
55290;SDS011;41155;39.768;2.712;2023-03-04T09:38:44;34.55;;;25.13;;
55290;SDS011;41155;39.768;2.712;2023-03-04T09:41:21;28.65;;;24.02;;
55290;SDS011;41155;39.768;2.712;2023-03-04T09:43:51;37.20;;;23.90;;
55290;SDS011;41155;39.768;2.712;2023-03-04T09:46:22;30.98;;;21.40;;
55290;SDS011;41155;39.768;2.712;2023-03-04T09:48:56;33.70;;;20.85;;
55290;SDS011;41155;39.768;2.712;2023-03-04T09:54:07;30.77;;;22.60;;
55290;SDS011;41155;39.768;2.712;2023-03-04T09:56:36;44.45;;;24.77;;
55290;SDS011;41155;39.768;2.712;2023-03-04T09:59:09;31.30;;;22.38;;
55290;SDS011;41155;39.768;2.712;2023-03-04T10:04:16;34.80;;;21.02;;
55290;SDS011;41155;39.768;2.712;2023-03-04T10:07:07;25.95;;;18.98;;
55290;SDS011;41155;39.768;2.712;2023-03-04T10:09:46;36.22;;;18.50;;
55290;SDS011;41155;39.768;2.712;2023-03-04T10:12:20;25.95;;;17.75;;
55290;SDS011;41155;39.768;2.712;2023-03-04T10:15:03;26.20;;;19.98;;
55290;SDS011;41155;39.768;2.712;2023-03-04T10:17:36;29.90;;;21.02;;
55290;SDS011;41155;39.768;2.712;2023-03-04T10:23:04;32.40;;;17.48;;
55290;SDS011;41155;39.768;2.712;2023-03-04T10:25:34;27.67;;;16.10;;
55290;SDS011;41155;39.768;2.712;2023-03-04T10:30:55;23.25;;;13.68;;
55290;SDS011;41155;39.768;2.712;2023-03-04T10:33:48;19.83;;;13.65;;
55290;SDS011;41155;39.768;2.712;2023-03-04T10:38:48;23.08;;;16.17;;
55290;SDS011;41155;39.768;2.712;2023-03-04T10:41:30;18.70;;;13.60;;
55290;SDS011;41155;39.768;2.712;2023-03-04T10:46:40;41.55;;;16.00;;
55290;SDS011;41155;39.768;2.712;2023-03-04T10:49:10;22.83;;;12.63;;
55290;SDS011;41155;39.768;2.712;2023-03-04T10:51:43;25.45;;;11.55;;
55290;SDS011;41155;39.768;2.712;2023-03-04T10:57:12;20.55;;;11.07;;
55290;SDS011;41155;39.768;2.712;2023-03-04T11:02:50;24.15;;;10.98;;
55290;SDS011;41155;39.768;2.712;2023-03-04T11:05:20;20.57;;;12.33;;
55290;SDS011;41155;39.768;2.712;2023-03-04T11:07:54;14.63;;;11.13;;
55290;SDS011;41155;39.768;2.712;2023-03-04T11:13:00;19.08;;;10.20;;
55290;SDS011;41155;39.768;2.712;2023-03-04T11:18:37;28.33;;;13.80;;
55290;SDS011;41155;39.768;2.712;2023-03-04T11:21:07;19.73;;;11.88;;
55290;SDS011;41155;39.768;2.712;2023-03-04T11:23:44;20.83;;;10.50;;
55290;SDS011;41155;39.768;2.712;2023-03-04T11:26:16;19.05;;;11.10;;
55290;SDS011;41155;39.768;2.712;2023-03-04T11:28:52;29.25;;;23.20;;
55290;SDS011;41155;39.768;2.712;2023-03-04T11:31:27;12.77;;;10.07;;
55290;SDS011;41155;39.768;2.712;2023-03-04T11:34:02;22.73;;;10.52;;
55290;SDS011;41155;39.768;2.712;2023-03-04T11:36:55;23.55;;;10.55;;
55290;SDS011;41155;39.768;2.712;2023-03-04T11:44:55;21.40;;;10.80;;
55290;SDS011;41155;39.768;2.712;2023-03-04T11:50:42;23.38;;;10.07;;
55290;SDS011;41155;39.768;2.712;2023-03-04T11:53:28;18.45;;;10.52;;
55290;SDS011;41155;39.768;2.712;2023-03-04T11:56:12;20.55;;;9.57;;
55290;SDS011;41155;39.768;2.712;2023-03-04T12:01:53;17.65;;;10.85;;
55290;SDS011;41155;39.768;2.712;2023-03-04T12:10:35;24.98;;;11.25;;
55290;SDS011;41155;39.768;2.712;2023-03-04T12:27:10;26.05;;;10.82;;
55290;SDS011;41155;39.768;2.712;2023-03-04T12:30:00;16.20;;;9.23;;
55290;SDS011;41155;39.768;2.712;2023-03-04T12:35:37;18.30;;;9.05;;
55290;SDS011;41155;39.768;2.712;2023-03-04T12:38:32;20.03;;;9.63;;
55290;SDS011;41155;39.768;2.712;2023-03-04T12:41:07;16.02;;;9.45;;
55290;SDS011;41155;39.768;2.712;2023-03-04T12:43:48;16.73;;;8.82;;
55290;SDS011;41155;39.768;2.712;2023-03-04T12:46:20;13.23;;;9.02;;
55290;SDS011;41155;39.768;2.712;2023-03-04T12:59:18;15.03;;;8.47;;
55290;SDS011;41155;39.768;2.712;2023-03-04T13:01:49;19.10;;;8.98;;
55290;SDS011;41155;39.768;2.712;2023-03-04T13:04:51;15.27;;;8.02;;
55290;SDS011;41155;39.768;2.712;2023-03-04T13:10:00;17.30;;;9.02;;
55290;SDS011;41155;39.768;2.712;2023-03-04T13:15:17;18.67;;;9.18;;
55290;SDS011;41155;39.768;2.712;2023-03-04T13:18:02;17.42;;;8.27;;
55290;SDS011;41155;39.768;2.712;2023-03-04T13:20:46;14.13;;;9.52;;
55290;SDS011;41155;39.768;2.712;2023-03-04T13:23:30;19.65;;;9.40;;
55290;SDS011;41155;39.768;2.712;2023-03-04T13:28:22;25.33;;;9.45;;
55290;SDS011;41155;39.768;2.712;2023-03-04T13:36:02;13.90;;;7.15;;
55290;SDS011;41155;39.768;2.712;2023-03-04T13:39:00;15.43;;;7.70;;
55290;SDS011;41155;39.768;2.712;2023-03-04T13:41:29;14.48;;;7.45;;
55290;SDS011;41155;39.768;2.712;2023-03-04T13:43:56;17.33;;;8.93;;
55290;SDS011;41155;39.768;2.712;2023-03-04T13:56:26;13.32;;;8.25;;
55290;SDS011;41155;39.768;2.712;2023-03-04T14:04:18;11.27;;;8.30;;
55290;SDS011;41155;39.768;2.712;2023-03-04T14:06:49;15.18;;;7.82;;
55290;SDS011;41155;39.768;2.712;2023-03-04T14:09:18;10.35;;;7.30;;
55290;SDS011;41155;39.768;2.712;2023-03-04T14:11:46;12.60;;;7.68;;
55290;SDS011;41155;39.768;2.712;2023-03-04T14:14:17;29.30;;;8.20;;
55290;SDS011;41155;39.768;2.712;2023-03-04T14:16:46;18.35;;;9.15;;
55290;SDS011;41155;39.768;2.712;2023-03-04T14:19:37;14.45;;;7.70;;
55290;SDS011;41155;39.768;2.712;2023-03-04T14:22:17;13.85;;;8.18;;
55290;SDS011;41155;39.768;2.712;2023-03-04T14:25:01;11.07;;;8.70;;
55290;SDS011;41155;39.768;2.712;2023-03-04T14:27:31;12.55;;;9.35;;
55290;SDS011;41155;39.768;2.712;2023-03-04T14:30:01;16.85;;;9.63;;
55290;SDS011;41155;39.768;2.712;2023-03-04T14:32:29;14.38;;;8.70;;
55290;SDS011;41155;39.768;2.712;2023-03-04T14:35:03;15.50;;;8.25;;
55290;SDS011;41155;39.768;2.712;2023-03-04T14:40:58;12.23;;;8.30;;
55290;SDS011;41155;39.768;2.712;2023-03-04T14:43:40;13.32;;;8.75;;
55290;SDS011;41155;39.768;2.712;2023-03-04T14:46:11;19.25;;;8.85;;
55290;SDS011;41155;39.768;2.712;2023-03-04T14:48:39;13.27;;;9.27;;
55290;SDS011;41155;39.768;2.712;2023-03-04T14:51:28;13.45;;;10.18;;
55290;SDS011;41155;39.768;2.712;2023-03-04T14:53:55;12.55;;;9.05;;
55290;SDS011;41155;39.768;2.712;2023-03-04T14:56:28;17.00;;;8.98;;
55290;SDS011;41155;39.768;2.712;2023-03-04T14:58:55;10.15;;;8.75;;
55290;SDS011;41155;39.768;2.712;2023-03-04T15:01:29;19.58;;;8.68;;
55290;SDS011;41155;39.768;2.712;2023-03-04T15:04:07;18.70;;;9.38;;
55290;SDS011;41155;39.768;2.712;2023-03-04T15:06:38;17.60;;;10.48;;
55290;SDS011;41155;39.768;2.712;2023-03-04T15:09:20;14.60;;;10.15;;
55290;SDS011;41155;39.768;2.712;2023-03-04T15:25:05;20.00;;;11.25;;
55290;SDS011;41155;39.768;2.712;2023-03-04T15:27:30;12.85;;;9.50;;
55290;SDS011;41155;39.768;2.712;2023-03-04T15:29:57;13.70;;;10.60;;
55290;SDS011;41155;39.768;2.712;2023-03-04T15:32:28;16.55;;;11.32;;
55290;SDS011;41155;39.768;2.712;2023-03-04T15:34:54;31.13;;;10.15;;
55290;SDS011;41155;39.768;2.712;2023-03-04T15:37:20;12.80;;;10.65;;
55290;SDS011;41155;39.768;2.712;2023-03-04T15:39:55;15.32;;;10.70;;
55290;SDS011;41155;39.768;2.712;2023-03-04T15:42:22;18.45;;;12.95;;
55290;SDS011;41155;39.768;2.712;2023-03-04T15:44:48;19.52;;;11.65;;
55290;SDS011;41155;39.768;2.712;2023-03-04T15:47:13;16.00;;;10.75;;
55290;SDS011;41155;39.768;2.712;2023-03-04T15:49:42;18.55;;;11.23;;
55290;SDS011;41155;39.768;2.712;2023-03-04T15:52:15;13.07;;;11.05;;
55290;SDS011;41155;39.768;2.712;2023-03-04T15:57:21;15.98;;;12.68;;
55290;SDS011;41155;39.768;2.712;2023-03-04T15:59:49;15.15;;;11.75;;
55290;SDS011;41155;39.768;2.712;2023-03-04T16:02:19;20.52;;;13.02;;
55290;SDS011;41155;39.768;2.712;2023-03-04T16:04:47;18.73;;;12.98;;
55290;SDS011;41155;39.768;2.712;2023-03-04T16:07:15;22.20;;;12.35;;
55290;SDS011;41155;39.768;2.712;2023-03-04T16:09:42;14.65;;;12.25;;
55290;SDS011;41155;39.768;2.712;2023-03-04T16:12:09;20.70;;;13.15;;
55290;SDS011;41155;39.768;2.712;2023-03-04T16:14:36;19.58;;;15.13;;
55290;SDS011;41155;39.768;2.712;2023-03-04T16:17:02;22.15;;;13.75;;
55290;SDS011;41155;39.768;2.712;2023-03-04T16:19:27;16.35;;;12.57;;
55290;SDS011;41155;39.768;2.712;2023-03-04T16:21:53;14.02;;;12.63;;
55290;SDS011;41155;39.768;2.712;2023-03-04T16:24:18;13.73;;;11.07;;
55290;SDS011;41155;39.768;2.712;2023-03-04T16:26:46;14.85;;;11.93;;
55290;SDS011;41155;39.768;2.712;2023-03-04T16:29:12;13.55;;;11.35;;
55290;SDS011;41155;39.768;2.712;2023-03-04T16:31:38;17.30;;;13.18;;
55290;SDS011;41155;39.768;2.712;2023-03-04T16:34:03;17.90;;;15.73;;
55290;SDS011;41155;39.768;2.712;2023-03-04T16:36:29;21.13;;;16.52;;
55290;SDS011;41155;39.768;2.712;2023-03-04T16:38:55;27.52;;;15.65;;
55290;SDS011;41155;39.768;2.712;2023-03-04T16:41:26;27.80;;;19.85;;